sensor_id;sensor_type;location;lat;lon;timestamp;P1;durP1;ratioP1;P2;durP2;ratioP2
36651;SDS011;53334;51.976;20.144;2024-02-14T00:02:14;10.70;;;6.80;;
36651;SDS011;53334;51.976;20.144;2024-02-14T00:04:47;10.95;;;6.53;;
36651;SDS011;53334;51.976;20.144;2024-02-14T00:07:21;12.35;;;7.22;;
36651;SDS011;53334;51.976;20.144;2024-02-14T00:09:55;18.27;;;7.05;;
36651;SDS011;53334;51.976;20.144;2024-02-14T00:12:28;23.13;;;7.40;;
36651;SDS011;53334;51.976;20.144;2024-02-14T00:15:02;12.20;;;7.20;;
36651;SDS011;53334;51.976;20.144;2024-02-14T00:17:37;10.65;;;7.05;;
36651;SDS011;53334;51.976;20.144;2024-02-14T00:20:11;12.20;;;6.45;;
36651;SDS011;53334;51.976;20.144;2024-02-14T00:22:54;11.27;;;6.70;;
36651;SDS011;53334;51.976;20.144;2024-02-14T00:25:28;9.40;;;6.45;;
36651;SDS011;53334;51.976;20.144;2024-02-14T00:28:03;13.25;;;7.63;;
36651;SDS011;53334;51.976;20.144;2024-02-14T00:30:37;10.43;;;6.57;;
36651;SDS011;53334;51.976;20.144;2024-02-14T00:33:33;9.40;;;6.38;;
36651;SDS011;53334;51.976;20.144;2024-02-14T00:36:07;12.85;;;7.82;;
36651;SDS011;53334;51.976;20.144;2024-02-14T00:38:40;9.25;;;6.85;;
36651;SDS011;53334;51.976;20.144;2024-02-14T00:41:15;15.75;;;6.55;;
36651;SDS011;53334;51.976;20.144;2024-02-14T00:43:48;15.23;;;7.30;;
36651;SDS011;53334;51.976;20.144;2024-02-14T00:46:21;26.70;;;7.40;;
36651;SDS011;53334;51.976;20.144;2024-02-14T00:48:54;11.27;;;6.47;;
36651;SDS011;53334;51.976;20.144;2024-02-14T00:51:28;11.35;;;6.78;;
36651;SDS011;53334;51.976;20.144;2024-02-14T00:54:01;10.27;;;6.70;;
36651;SDS011;53334;51.976;20.144;2024-02-14T00:56:36;9.10;;;5.72;;
36651;SDS011;53334;51.976;20.144;2024-02-14T00:59:10;13.07;;;6.78;;
36651;SDS011;53334;51.976;20.144;2024-02-14T01:01:43;16.40;;;7.07;;
36651;SDS011;53334;51.976;20.144;2024-02-14T01:04:16;10.57;;;6.30;;
36651;SDS011;53334;51.976;20.144;2024-02-14T01:06:50;9.00;;;6.15;;
36651;SDS011;53334;51.976;20.144;2024-02-14T01:09:23;11.68;;;6.53;;
36651;SDS011;53334;51.976;20.144;2024-02-14T01:11:58;10.15;;;6.18;;
36651;SDS011;53334;51.976;20.144;2024-02-14T01:14:31;13.90;;;7.15;;
36651;SDS011;53334;51.976;20.144;2024-02-14T01:17:05;10.98;;;6.28;;
36651;SDS011;53334;51.976;20.144;2024-02-14T01:19:38;8.23;;;5.47;;
36651;SDS011;53334;51.976;20.144;2024-02-14T01:22:12;10.73;;;5.93;;
36651;SDS011;53334;51.976;20.144;2024-02-14T01:25:07;9.85;;;6.32;;
36651;SDS011;53334;51.976;20.144;2024-02-14T01:27:42;9.38;;;6.05;;
36651;SDS011;53334;51.976;20.144;2024-02-14T01:30:16;9.50;;;5.60;;
36651;SDS011;53334;51.976;20.144;2024-02-14T01:32:49;15.07;;;6.47;;
36651;SDS011;53334;51.976;20.144;2024-02-14T01:35:24;8.85;;;6.20;;
36651;SDS011;53334;51.976;20.144;2024-02-14T01:40:34;10.25;;;6.03;;
36651;SDS011;53334;51.976;20.144;2024-02-14T01:43:10;7.60;;;5.50;;
36651;SDS011;53334;51.976;20.144;2024-02-14T01:45:46;9.45;;;5.38;;
36651;SDS011;53334;51.976;20.144;2024-02-14T01:48:20;7.22;;;5.97;;
36651;SDS011;53334;51.976;20.144;2024-02-14T01:50:53;8.50;;;5.70;;
36651;SDS011;53334;51.976;20.144;2024-02-14T01:53:27;8.68;;;5.95;;
36651;SDS011;53334;51.976;20.144;2024-02-14T01:56:02;9.30;;;6.28;;
36651;SDS011;53334;51.976;20.144;2024-02-14T01:58:38;7.68;;;5.18;;
36651;SDS011;53334;51.976;20.144;2024-02-14T02:01:12;9.10;;;5.78;;
36651;SDS011;53334;51.976;20.144;2024-02-14T02:03:45;8.60;;;5.50;;
36651;SDS011;53334;51.976;20.144;2024-02-14T02:06:18;6.68;;;5.05;;
36651;SDS011;53334;51.976;20.144;2024-02-14T02:08:52;6.80;;;5.20;;
36651;SDS011;53334;51.976;20.144;2024-02-14T02:11:25;8.10;;;5.13;;
36651;SDS011;53334;51.976;20.144;2024-02-14T02:14:20;7.57;;;4.95;;
36651;SDS011;53334;51.976;20.144;2024-02-14T02:17:13;8.13;;;5.60;;
36651;SDS011;53334;51.976;20.144;2024-02-14T02:20:09;7.75;;;5.30;;
36651;SDS011;53334;51.976;20.144;2024-02-14T02:22:46;8.80;;;5.20;;
36651;SDS011;53334;51.976;20.144;2024-02-14T02:25:39;9.75;;;5.82;;
36651;SDS011;53334;51.976;20.144;2024-02-14T02:28:33;15.02;;;5.82;;
36651;SDS011;53334;51.976;20.144;2024-02-14T02:31:06;9.45;;;5.60;;
36651;SDS011;53334;51.976;20.144;2024-02-14T02:33:42;13.00;;;5.65;;
36651;SDS011;53334;51.976;20.144;2024-02-14T02:36:15;13.82;;;5.97;;
36651;SDS011;53334;51.976;20.144;2024-02-14T02:39:10;9.07;;;5.70;;
36651;SDS011;53334;51.976;20.144;2024-02-14T02:42:05;9.98;;;5.97;;
36651;SDS011;53334;51.976;20.144;2024-02-14T02:45:02;8.35;;;5.80;;
36651;SDS011;53334;51.976;20.144;2024-02-14T02:47:59;8.63;;;5.57;;
36651;SDS011;53334;51.976;20.144;2024-02-14T02:53:45;9.07;;;5.68;;
36651;SDS011;53334;51.976;20.144;2024-02-14T02:56:40;9.05;;;5.60;;
36651;SDS011;53334;51.976;20.144;2024-02-14T02:59:13;10.65;;;5.72;;
36651;SDS011;53334;51.976;20.144;2024-02-14T03:01:48;10.02;;;6.20;;
36651;SDS011;53334;51.976;20.144;2024-02-14T03:04:42;9.38;;;6.00;;
36651;SDS011;53334;51.976;20.144;2024-02-14T03:07:43;10.85;;;5.97;;
36651;SDS011;53334;51.976;20.144;2024-02-14T03:10:39;8.85;;;6.00;;
36651;SDS011;53334;51.976;20.144;2024-02-14T03:13:34;9.50;;;5.13;;
36651;SDS011;53334;51.976;20.144;2024-02-14T03:16:30;8.52;;;5.30;;
36651;SDS011;53334;51.976;20.144;2024-02-14T03:19:03;8.38;;;5.32;;
36651;SDS011;53334;51.976;20.144;2024-02-14T03:24:10;7.57;;;5.43;;
36651;SDS011;53334;51.976;20.144;2024-02-14T03:26:44;7.97;;;5.70;;
36651;SDS011;53334;51.976;20.144;2024-02-14T03:29:21;7.30;;;5.40;;
36651;SDS011;53334;51.976;20.144;2024-02-14T03:31:54;6.75;;;5.05;;
36651;SDS011;53334;51.976;20.144;2024-02-14T03:34:30;7.85;;;5.45;;
36651;SDS011;53334;51.976;20.144;2024-02-14T03:37:05;9.10;;;4.72;;
36651;SDS011;53334;51.976;20.144;2024-02-14T03:39:38;6.88;;;5.10;;
36651;SDS011;53334;51.976;20.144;2024-02-14T03:42:12;8.65;;;5.57;;
36651;SDS011;53334;51.976;20.144;2024-02-14T03:44:48;8.32;;;5.53;;
36651;SDS011;53334;51.976;20.144;2024-02-14T03:47:21;8.45;;;5.07;;
36651;SDS011;53334;51.976;20.144;2024-02-14T03:49:54;8.50;;;5.55;;
36651;SDS011;53334;51.976;20.144;2024-02-14T03:52:27;6.93;;;5.05;;
36651;SDS011;53334;51.976;20.144;2024-02-14T03:55:04;8.70;;;5.97;;
36651;SDS011;53334;51.976;20.144;2024-02-14T03:57:38;7.32;;;5.22;;
36651;SDS011;53334;51.976;20.144;2024-02-14T04:00:13;8.35;;;5.47;;
36651;SDS011;53334;51.976;20.144;2024-02-14T04:02:48;10.30;;;5.63;;
36651;SDS011;53334;51.976;20.144;2024-02-14T04:05:30;8.02;;;5.40;;
36651;SDS011;53334;51.976;20.144;2024-02-14T04:08:04;6.82;;;4.95;;
36651;SDS011;53334;51.976;20.144;2024-02-14T04:10:40;7.60;;;5.53;;
36651;SDS011;53334;51.976;20.144;2024-02-14T04:13:15;9.57;;;5.65;;
36651;SDS011;53334;51.976;20.144;2024-02-14T04:15:50;8.32;;;5.63;;
36651;SDS011;53334;51.976;20.144;2024-02-14T04:18:25;7.43;;;5.53;;
36651;SDS011;53334;51.976;20.144;2024-02-14T04:20:59;6.93;;;5.00;;
36651;SDS011;53334;51.976;20.144;2024-02-14T04:23:32;6.97;;;5.38;;
36651;SDS011;53334;51.976;20.144;2024-02-14T04:26:05;8.05;;;5.72;;
36651;SDS011;53334;51.976;20.144;2024-02-14T04:28:39;8.85;;;5.57;;
36651;SDS011;53334;51.976;20.144;2024-02-14T04:31:14;8.85;;;5.60;;
36651;SDS011;53334;51.976;20.144;2024-02-14T04:34:03;8.27;;;5.72;;
36651;SDS011;53334;51.976;20.144;2024-02-14T04:36:39;8.00;;;5.70;;
36651;SDS011;53334;51.976;20.144;2024-02-14T04:39:12;8.25;;;5.22;;
36651;SDS011;53334;51.976;20.144;2024-02-14T04:41:46;6.60;;;5.43;;
36651;SDS011;53334;51.976;20.144;2024-02-14T04:44:32;8.20;;;5.13;;
36651;SDS011;53334;51.976;20.144;2024-02-14T04:47:07;6.68;;;5.28;;
36651;SDS011;53334;51.976;20.144;2024-02-14T04:49:41;7.80;;;5.80;;
36651;SDS011;53334;51.976;20.144;2024-02-14T04:52:14;7.47;;;4.82;;
36651;SDS011;53334;51.976;20.144;2024-02-14T04:54:47;8.35;;;6.05;;
36651;SDS011;53334;51.976;20.144;2024-02-14T04:57:20;5.78;;;4.75;;
36651;SDS011;53334;51.976;20.144;2024-02-14T04:59:54;6.30;;;4.68;;
36651;SDS011;53334;51.976;20.144;2024-02-14T05:02:28;7.00;;;5.22;;
36651;SDS011;53334;51.976;20.144;2024-02-14T05:05:02;8.35;;;5.53;;
36651;SDS011;53334;51.976;20.144;2024-02-14T05:07:37;8.32;;;5.93;;
36651;SDS011;53334;51.976;20.144;2024-02-14T05:10:11;9.77;;;5.95;;
36651;SDS011;53334;51.976;20.144;2024-02-14T05:12:44;7.65;;;5.78;;
36651;SDS011;53334;51.976;20.144;2024-02-14T05:15:17;9.18;;;5.65;;
36651;SDS011;53334;51.976;20.144;2024-02-14T05:17:52;8.77;;;5.90;;
36651;SDS011;53334;51.976;20.144;2024-02-14T05:20:25;8.95;;;6.03;;
36651;SDS011;53334;51.976;20.144;2024-02-14T05:22:58;8.52;;;6.20;;
36651;SDS011;53334;51.976;20.144;2024-02-14T05:25:32;11.05;;;6.05;;
36651;SDS011;53334;51.976;20.144;2024-02-14T05:28:06;6.63;;;5.47;;
36651;SDS011;53334;51.976;20.144;2024-02-14T05:30:44;12.40;;;7.25;;
36651;SDS011;53334;51.976;20.144;2024-02-14T05:33:30;8.05;;;6.22;;
36651;SDS011;53334;51.976;20.144;2024-02-14T05:36:04;9.95;;;5.07;;
36651;SDS011;53334;51.976;20.144;2024-02-14T05:38:38;10.05;;;6.57;;
36651;SDS011;53334;51.976;20.144;2024-02-14T05:41:11;9.68;;;6.05;;
36651;SDS011;53334;51.976;20.144;2024-02-14T05:43:44;9.18;;;6.22;;
36651;SDS011;53334;51.976;20.144;2024-02-14T05:46:18;12.85;;;6.45;;
36651;SDS011;53334;51.976;20.144;2024-02-14T05:48:53;8.77;;;6.68;;
36651;SDS011;53334;51.976;20.144;2024-02-14T05:51:28;9.23;;;6.15;;
36651;SDS011;53334;51.976;20.144;2024-02-14T05:54:02;10.55;;;7.05;;
36651;SDS011;53334;51.976;20.144;2024-02-14T05:56:35;11.40;;;6.13;;
36651;SDS011;53334;51.976;20.144;2024-02-14T05:59:09;15.98;;;6.55;;
36651;SDS011;53334;51.976;20.144;2024-02-14T06:01:42;9.82;;;6.43;;
36651;SDS011;53334;51.976;20.144;2024-02-14T06:04:17;13.40;;;7.13;;
36651;SDS011;53334;51.976;20.144;2024-02-14T06:06:50;13.45;;;7.35;;
36651;SDS011;53334;51.976;20.144;2024-02-14T06:09:23;11.73;;;6.88;;
36651;SDS011;53334;51.976;20.144;2024-02-14T06:11:57;10.63;;;7.28;;
36651;SDS011;53334;51.976;20.144;2024-02-14T06:14:30;15.13;;;8.45;;
36651;SDS011;53334;51.976;20.144;2024-02-14T06:17:05;12.95;;;8.75;;
36651;SDS011;53334;51.976;20.144;2024-02-14T06:19:40;16.35;;;8.82;;
36651;SDS011;53334;51.976;20.144;2024-02-14T06:22:13;13.80;;;9.07;;
36651;SDS011;53334;51.976;20.144;2024-02-14T06:24:47;15.57;;;9.50;;
36651;SDS011;53334;51.976;20.144;2024-02-14T06:27:21;16.15;;;9.30;;
36651;SDS011;53334;51.976;20.144;2024-02-14T06:29:54;14.23;;;8.65;;
36651;SDS011;53334;51.976;20.144;2024-02-14T06:32:28;13.82;;;8.85;;
36651;SDS011;53334;51.976;20.144;2024-02-14T06:35:03;13.85;;;9.90;;
36651;SDS011;53334;51.976;20.144;2024-02-14T06:37:37;20.13;;;10.00;;
36651;SDS011;53334;51.976;20.144;2024-02-14T06:40:23;14.93;;;9.20;;
36651;SDS011;53334;51.976;20.144;2024-02-14T06:42:58;13.00;;;8.85;;
36651;SDS011;53334;51.976;20.144;2024-02-14T06:45:32;14.75;;;9.38;;
36651;SDS011;53334;51.976;20.144;2024-02-14T06:48:17;14.18;;;9.32;;
36651;SDS011;53334;51.976;20.144;2024-02-14T06:50:57;29.00;;;12.50;;
36651;SDS011;53334;51.976;20.144;2024-02-14T06:53:30;15.13;;;9.68;;
36651;SDS011;53334;51.976;20.144;2024-02-14T06:56:03;16.13;;;10.23;;
36651;SDS011;53334;51.976;20.144;2024-02-14T06:58:37;17.73;;;8.90;;
36651;SDS011;53334;51.976;20.144;2024-02-14T07:01:10;16.02;;;8.65;;
36651;SDS011;53334;51.976;20.144;2024-02-14T07:03:46;15.40;;;9.18;;
36651;SDS011;53334;51.976;20.144;2024-02-14T07:06:21;21.05;;;11.38;;
36651;SDS011;53334;51.976;20.144;2024-02-14T07:08:54;18.42;;;11.82;;
36651;SDS011;53334;51.976;20.144;2024-02-14T07:11:28;17.77;;;11.32;;
36651;SDS011;53334;51.976;20.144;2024-02-14T07:14:01;17.20;;;11.13;;
36651;SDS011;53334;51.976;20.144;2024-02-14T07:16:34;20.58;;;11.65;;
36651;SDS011;53334;51.976;20.144;2024-02-14T07:19:07;21.92;;;12.80;;
36651;SDS011;53334;51.976;20.144;2024-02-14T07:21:42;19.20;;;11.25;;
36651;SDS011;53334;51.976;20.144;2024-02-14T07:24:15;23.10;;;13.48;;
36651;SDS011;53334;51.976;20.144;2024-02-14T07:26:49;23.27;;;12.95;;
36651;SDS011;53334;51.976;20.144;2024-02-14T07:29:21;23.15;;;12.40;;
36651;SDS011;53334;51.976;20.144;2024-02-14T07:31:54;29.45;;;12.82;;
36651;SDS011;53334;51.976;20.144;2024-02-14T07:34:30;29.17;;;13.30;;
36651;SDS011;53334;51.976;20.144;2024-02-14T07:37:05;21.40;;;13.32;;
36651;SDS011;53334;51.976;20.144;2024-02-14T07:39:38;31.15;;;14.23;;
36651;SDS011;53334;51.976;20.144;2024-02-14T07:42:11;26.90;;;13.73;;
36651;SDS011;53334;51.976;20.144;2024-02-14T07:44:44;24.08;;;12.27;;
36651;SDS011;53334;51.976;20.144;2024-02-14T07:47:18;25.33;;;13.95;;
36651;SDS011;53334;51.976;20.144;2024-02-14T07:49:51;29.45;;;13.88;;
36651;SDS011;53334;51.976;20.144;2024-02-14T07:54:59;25.77;;;13.48;;
36651;SDS011;53334;51.976;20.144;2024-02-14T07:57:32;24.98;;;13.52;;
36651;SDS011;53334;51.976;20.144;2024-02-14T08:00:06;22.55;;;13.68;;
36651;SDS011;53334;51.976;20.144;2024-02-14T08:02:41;38.08;;;13.90;;
36651;SDS011;53334;51.976;20.144;2024-02-14T08:05:14;30.10;;;13.68;;
36651;SDS011;53334;51.976;20.144;2024-02-14T08:07:49;30.35;;;13.55;;
36651;SDS011;53334;51.976;20.144;2024-02-14T08:10:22;20.65;;;11.73;;
36651;SDS011;53334;51.976;20.144;2024-02-14T08:12:55;26.55;;;11.80;;
36651;SDS011;53334;51.976;20.144;2024-02-14T08:15:28;23.70;;;12.60;;
36651;SDS011;53334;51.976;20.144;2024-02-14T08:18:02;26.05;;;13.80;;
36651;SDS011;53334;51.976;20.144;2024-02-14T08:20:40;23.00;;;11.65;;
36651;SDS011;53334;51.976;20.144;2024-02-14T08:23:19;20.83;;;11.88;;
36651;SDS011;53334;51.976;20.144;2024-02-14T08:25:53;20.25;;;11.75;;
36651;SDS011;53334;51.976;20.144;2024-02-14T08:28:26;25.38;;;12.30;;
36651;SDS011;53334;51.976;20.144;2024-02-14T08:30:59;21.98;;;12.35;;
36651;SDS011;53334;51.976;20.144;2024-02-14T08:33:32;25.98;;;12.82;;
36651;SDS011;53334;51.976;20.144;2024-02-14T08:36:06;24.65;;;18.23;;
36651;SDS011;53334;51.976;20.144;2024-02-14T08:38:41;31.00;;;18.40;;
36651;SDS011;53334;51.976;20.144;2024-02-14T08:41:14;23.88;;;16.88;;
36651;SDS011;53334;51.976;20.144;2024-02-14T08:43:50;31.30;;;17.80;;
36651;SDS011;53334;51.976;20.144;2024-02-14T08:46:23;24.25;;;16.48;;
36651;SDS011;53334;51.976;20.144;2024-02-14T08:48:57;23.75;;;16.52;;
36651;SDS011;53334;51.976;20.144;2024-02-14T08:51:33;23.13;;;15.10;;
36651;SDS011;53334;51.976;20.144;2024-02-14T08:54:09;23.70;;;15.95;;
36651;SDS011;53334;51.976;20.144;2024-02-14T08:56:44;33.60;;;17.77;;
36651;SDS011;53334;51.976;20.144;2024-02-14T08:59:17;22.98;;;17.10;;
36651;SDS011;53334;51.976;20.144;2024-02-14T09:01:51;29.48;;;17.30;;
36651;SDS011;53334;51.976;20.144;2024-02-14T09:04:24;22.17;;;14.68;;
36651;SDS011;53334;51.976;20.144;2024-02-14T09:06:59;30.23;;;14.52;;
36651;SDS011;53334;51.976;20.144;2024-02-14T09:09:33;24.35;;;14.23;;
36651;SDS011;53334;51.976;20.144;2024-02-14T09:12:08;21.30;;;13.38;;
36651;SDS011;53334;51.976;20.144;2024-02-14T09:14:41;21.23;;;12.65;;
36651;SDS011;53334;51.976;20.144;2024-02-14T09:17:15;23.63;;;12.50;;
36651;SDS011;53334;51.976;20.144;2024-02-14T09:19:48;23.33;;;12.98;;
36651;SDS011;53334;51.976;20.144;2024-02-14T09:22:23;21.08;;;12.73;;
36651;SDS011;53334;51.976;20.144;2024-02-14T09:24:57;23.50;;;13.05;;
36651;SDS011;53334;51.976;20.144;2024-02-14T09:27:31;19.23;;;12.05;;
36651;SDS011;53334;51.976;20.144;2024-02-14T09:30:07;17.77;;;11.80;;
36651;SDS011;53334;51.976;20.144;2024-02-14T09:32:55;19.33;;;10.68;;
36651;SDS011;53334;51.976;20.144;2024-02-14T09:35:28;15.85;;;11.48;;
36651;SDS011;53334;51.976;20.144;2024-02-14T09:38:01;17.75;;;11.13;;
36651;SDS011;53334;51.976;20.144;2024-02-14T09:40:36;16.65;;;10.82;;
36651;SDS011;53334;51.976;20.144;2024-02-14T09:43:15;13.93;;;10.27;;
36651;SDS011;53334;51.976;20.144;2024-02-14T09:45:55;14.00;;;9.85;;
36651;SDS011;53334;51.976;20.144;2024-02-14T09:48:29;17.50;;;9.98;;
36651;SDS011;53334;51.976;20.144;2024-02-14T09:51:03;15.35;;;9.27;;
36651;SDS011;53334;51.976;20.144;2024-02-14T09:53:37;15.07;;;9.23;;
36651;SDS011;53334;51.976;20.144;2024-02-14T09:56:12;15.10;;;9.43;;
36651;SDS011;53334;51.976;20.144;2024-02-14T09:58:48;11.57;;;7.70;;
36651;SDS011;53334;51.976;20.144;2024-02-14T10:01:28;14.55;;;8.73;;
36651;SDS011;53334;51.976;20.144;2024-02-14T10:04:04;13.35;;;8.93;;
36651;SDS011;53334;51.976;20.144;2024-02-14T10:06:37;9.52;;;6.57;;
36651;SDS011;53334;51.976;20.144;2024-02-14T10:09:10;11.98;;;7.75;;
36651;SDS011;53334;51.976;20.144;2024-02-14T10:14:19;12.20;;;7.85;;
36651;SDS011;53334;51.976;20.144;2024-02-14T10:16:52;12.07;;;7.97;;
36651;SDS011;53334;51.976;20.144;2024-02-14T10:19:25;9.32;;;6.72;;
36651;SDS011;53334;51.976;20.144;2024-02-14T10:21:59;12.45;;;7.05;;
36651;SDS011;53334;51.976;20.144;2024-02-14T10:24:34;12.20;;;7.45;;
36651;SDS011;53334;51.976;20.144;2024-02-14T10:27:11;9.82;;;6.95;;
36651;SDS011;53334;51.976;20.144;2024-02-14T10:29:44;11.15;;;6.90;;
36651;SDS011;53334;51.976;20.144;2024-02-14T10:32:17;10.05;;;7.10;;
36651;SDS011;53334;51.976;20.144;2024-02-14T10:34:51;10.98;;;7.03;;
36651;SDS011;53334;51.976;20.144;2024-02-14T10:37:24;10.43;;;7.28;;
36651;SDS011;53334;51.976;20.144;2024-02-14T10:39:58;8.70;;;6.25;;
36651;SDS011;53334;51.976;20.144;2024-02-14T10:42:35;8.85;;;6.30;;
36651;SDS011;53334;51.976;20.144;2024-02-14T10:45:08;13.38;;;6.65;;
36651;SDS011;53334;51.976;20.144;2024-02-14T10:47:52;13.13;;;6.35;;
36651;SDS011;53334;51.976;20.144;2024-02-14T10:50:29;9.90;;;5.63;;
36651;SDS011;53334;51.976;20.144;2024-02-14T10:53:06;9.77;;;5.75;;
36651;SDS011;53334;51.976;20.144;2024-02-14T10:55:45;11.20;;;5.65;;
36651;SDS011;53334;51.976;20.144;2024-02-14T10:58:22;9.13;;;5.97;;
36651;SDS011;53334;51.976;20.144;2024-02-14T11:00:57;11.15;;;6.13;;
36651;SDS011;53334;51.976;20.144;2024-02-14T11:03:33;9.25;;;4.93;;
36651;SDS011;53334;51.976;20.144;2024-02-14T11:06:07;14.70;;;5.68;;
36651;SDS011;53334;51.976;20.144;2024-02-14T11:08:40;12.00;;;5.70;;
36651;SDS011;53334;51.976;20.144;2024-02-14T11:11:13;14.70;;;5.53;;
36651;SDS011;53334;51.976;20.144;2024-02-14T11:13:52;10.05;;;5.40;;
36651;SDS011;53334;51.976;20.144;2024-02-14T11:16:26;8.55;;;5.28;;
36651;SDS011;53334;51.976;20.144;2024-02-14T11:19:06;8.18;;;5.45;;
36651;SDS011;53334;51.976;20.144;2024-02-14T11:21:42;7.10;;;4.00;;
36651;SDS011;53334;51.976;20.144;2024-02-14T11:24:18;8.23;;;5.57;;
36651;SDS011;53334;51.976;20.144;2024-02-14T11:26:52;10.00;;;4.78;;
36651;SDS011;53334;51.976;20.144;2024-02-14T11:32:03;6.57;;;4.38;;
36651;SDS011;53334;51.976;20.144;2024-02-14T11:34:51;8.55;;;4.32;;
36651;SDS011;53334;51.976;20.144;2024-02-14T11:37:29;5.47;;;4.32;;
36651;SDS011;53334;51.976;20.144;2024-02-14T11:40:04;9.45;;;4.60;;
36651;SDS011;53334;51.976;20.144;2024-02-14T11:42:38;8.70;;;4.40;;
36651;SDS011;53334;51.976;20.144;2024-02-14T11:45:13;9.52;;;4.90;;
36651;SDS011;53334;51.976;20.144;2024-02-14T11:47:46;6.00;;;3.85;;
36651;SDS011;53334;51.976;20.144;2024-02-14T11:50:20;12.00;;;4.70;;
36651;SDS011;53334;51.976;20.144;2024-02-14T11:52:54;8.18;;;4.40;;
36651;SDS011;53334;51.976;20.144;2024-02-14T11:55:27;7.18;;;4.18;;
36651;SDS011;53334;51.976;20.144;2024-02-14T11:58:01;5.35;;;4.15;;
36651;SDS011;53334;51.976;20.144;2024-02-14T12:00:36;11.98;;;4.78;;
36651;SDS011;53334;51.976;20.144;2024-02-14T12:03:12;10.25;;;4.75;;
36651;SDS011;53334;51.976;20.144;2024-02-14T12:05:48;7.45;;;3.88;;
36651;SDS011;53334;51.976;20.144;2024-02-14T12:08:23;8.50;;;4.35;;
36651;SDS011;53334;51.976;20.144;2024-02-14T12:10:57;7.60;;;4.75;;
36651;SDS011;53334;51.976;20.144;2024-02-14T12:13:30;5.03;;;3.97;;
36651;SDS011;53334;51.976;20.144;2024-02-14T12:16:08;7.75;;;4.20;;
36651;SDS011;53334;51.976;20.144;2024-02-14T12:18:41;8.63;;;4.13;;
36651;SDS011;53334;51.976;20.144;2024-02-14T12:21:15;6.80;;;3.88;;
36651;SDS011;53334;51.976;20.144;2024-02-14T12:23:49;6.03;;;4.10;;
36651;SDS011;53334;51.976;20.144;2024-02-14T12:26:31;7.82;;;4.65;;
36651;SDS011;53334;51.976;20.144;2024-02-14T12:29:04;8.98;;;5.00;;
36651;SDS011;53334;51.976;20.144;2024-02-14T12:31:40;9.07;;;3.88;;
36651;SDS011;53334;51.976;20.144;2024-02-14T12:34:15;10.98;;;4.43;;
36651;SDS011;53334;51.976;20.144;2024-02-14T12:36:54;8.38;;;3.63;;
36651;SDS011;53334;51.976;20.144;2024-02-14T12:39:27;6.25;;;4.03;;
36651;SDS011;53334;51.976;20.144;2024-02-14T12:42:00;17.33;;;5.22;;
36651;SDS011;53334;51.976;20.144;2024-02-14T12:44:35;11.23;;;4.30;;
36651;SDS011;53334;51.976;20.144;2024-02-14T12:47:11;8.68;;;4.00;;
36651;SDS011;53334;51.976;20.144;2024-02-14T12:49:45;6.30;;;3.40;;
36651;SDS011;53334;51.976;20.144;2024-02-14T12:52:19;7.25;;;4.32;;
36651;SDS011;53334;51.976;20.144;2024-02-14T12:54:52;8.27;;;4.00;;
36651;SDS011;53334;51.976;20.144;2024-02-14T12:57:25;13.98;;;4.28;;
36651;SDS011;53334;51.976;20.144;2024-02-14T12:59:58;8.27;;;4.40;;
36651;SDS011;53334;51.976;20.144;2024-02-14T13:02:33;7.63;;;3.92;;
36651;SDS011;53334;51.976;20.144;2024-02-14T13:05:06;11.52;;;4.03;;
36651;SDS011;53334;51.976;20.144;2024-02-14T13:07:40;8.27;;;4.90;;
36651;SDS011;53334;51.976;20.144;2024-02-14T13:10:13;15.10;;;5.18;;
36651;SDS011;53334;51.976;20.144;2024-02-14T13:12:47;10.30;;;4.85;;
36651;SDS011;53334;51.976;20.144;2024-02-14T13:15:21;9.73;;;4.63;;
36651;SDS011;53334;51.976;20.144;2024-02-14T13:17:55;16.35;;;5.30;;
36651;SDS011;53334;51.976;20.144;2024-02-14T13:20:30;10.68;;;5.40;;
36651;SDS011;53334;51.976;20.144;2024-02-14T13:23:05;11.40;;;4.50;;
36651;SDS011;53334;51.976;20.144;2024-02-14T13:25:39;10.02;;;5.35;;
36651;SDS011;53334;51.976;20.144;2024-02-14T13:28:13;12.55;;;4.93;;
36651;SDS011;53334;51.976;20.144;2024-02-14T13:30:46;9.48;;;4.72;;
36651;SDS011;53334;51.976;20.144;2024-02-14T13:33:20;17.20;;;4.75;;
36651;SDS011;53334;51.976;20.144;2024-02-14T13:35:54;16.52;;;4.97;;
36651;SDS011;53334;51.976;20.144;2024-02-14T13:38:27;12.35;;;5.45;;
36651;SDS011;53334;51.976;20.144;2024-02-14T13:41:01;12.70;;;5.05;;
36651;SDS011;53334;51.976;20.144;2024-02-14T13:43:34;7.28;;;4.10;;
36651;SDS011;53334;51.976;20.144;2024-02-14T13:46:07;11.82;;;4.95;;
36651;SDS011;53334;51.976;20.144;2024-02-14T13:48:42;12.40;;;4.97;;
36651;SDS011;53334;51.976;20.144;2024-02-14T13:51:15;6.03;;;3.38;;
36651;SDS011;53334;51.976;20.144;2024-02-14T13:53:49;7.97;;;4.70;;
36651;SDS011;53334;51.976;20.144;2024-02-14T13:56:22;9.63;;;4.38;;
36651;SDS011;53334;51.976;20.144;2024-02-14T13:58:56;10.65;;;5.15;;
36651;SDS011;53334;51.976;20.144;2024-02-14T14:01:30;9.20;;;4.15;;
36651;SDS011;53334;51.976;20.144;2024-02-14T14:04:05;5.53;;;3.78;;
36651;SDS011;53334;51.976;20.144;2024-02-14T14:06:38;7.30;;;4.00;;
36651;SDS011;53334;51.976;20.144;2024-02-14T14:09:12;12.52;;;4.63;;
36651;SDS011;53334;51.976;20.144;2024-02-14T14:11:45;8.68;;;4.68;;
36651;SDS011;53334;51.976;20.144;2024-02-14T14:14:21;15.13;;;4.20;;
36651;SDS011;53334;51.976;20.144;2024-02-14T14:16:58;12.25;;;4.75;;
36651;SDS011;53334;51.976;20.144;2024-02-14T14:19:32;11.25;;;4.30;;
36651;SDS011;53334;51.976;20.144;2024-02-14T14:22:06;14.25;;;4.72;;
36651;SDS011;53334;51.976;20.144;2024-02-14T14:24:40;10.82;;;4.20;;
36651;SDS011;53334;51.976;20.144;2024-02-14T14:27:14;14.43;;;5.18;;
36651;SDS011;53334;51.976;20.144;2024-02-14T14:29:48;10.10;;;4.32;;
36651;SDS011;53334;51.976;20.144;2024-02-14T14:32:22;6.60;;;3.65;;
36651;SDS011;53334;51.976;20.144;2024-02-14T14:34:56;9.43;;;4.68;;
36651;SDS011;53334;51.976;20.144;2024-02-14T14:37:29;15.77;;;5.05;;
36651;SDS011;53334;51.976;20.144;2024-02-14T14:40:03;11.05;;;4.50;;
36651;SDS011;53334;51.976;20.144;2024-02-14T14:42:39;15.10;;;5.20;;
36651;SDS011;53334;51.976;20.144;2024-02-14T14:45:13;15.23;;;5.20;;
36651;SDS011;53334;51.976;20.144;2024-02-14T14:50:21;15.30;;;5.07;;
36651;SDS011;53334;51.976;20.144;2024-02-14T14:52:54;23.17;;;4.80;;
36651;SDS011;53334;51.976;20.144;2024-02-14T14:55:40;19.15;;;4.47;;
36651;SDS011;53334;51.976;20.144;2024-02-14T14:58:24;13.93;;;6.10;;
36651;SDS011;53334;51.976;20.144;2024-02-14T15:01:00;15.25;;;6.03;;
36651;SDS011;53334;51.976;20.144;2024-02-14T15:03:35;14.63;;;5.90;;
36651;SDS011;53334;51.976;20.144;2024-02-14T15:06:10;10.50;;;5.72;;
36651;SDS011;53334;51.976;20.144;2024-02-14T15:08:44;16.05;;;5.82;;
36651;SDS011;53334;51.976;20.144;2024-02-14T15:11:19;10.60;;;5.20;;
36651;SDS011;53334;51.976;20.144;2024-02-14T15:13:52;13.93;;;5.28;;
36651;SDS011;53334;51.976;20.144;2024-02-14T15:16:26;9.13;;;5.50;;
36651;SDS011;53334;51.976;20.144;2024-02-14T15:18:59;12.43;;;5.72;;
36651;SDS011;53334;51.976;20.144;2024-02-14T15:21:34;8.80;;;4.43;;
36651;SDS011;53334;51.976;20.144;2024-02-14T15:24:08;12.27;;;5.57;;
36651;SDS011;53334;51.976;20.144;2024-02-14T15:26:41;8.82;;;4.95;;
36651;SDS011;53334;51.976;20.144;2024-02-14T15:29:22;10.43;;;4.68;;
36651;SDS011;53334;51.976;20.144;2024-02-14T15:32:12;8.73;;;5.43;;
36651;SDS011;53334;51.976;20.144;2024-02-14T15:35:14;6.82;;;4.68;;